Time;durP1;ratioP1;P1;durP2;ratioP2;P2;SDS_P1;SDS_P2;PMS_P1;PMS_P2;Temp;Humidity;BMP_temperature;BMP_pressure;BME280_temperature;BME280_humidity;BME280_pressure;Samples;Min_cycle;Max_cycle;Signal;HPM_P1;HPM_P2
2022/09/13 00:00:45;;;;;;;1.00;0.77;;;;;;;26.65;48.90;98613.19;2058195;28;20112;-52
2022/09/13 00:01:46;;;;;;;2.10;0.80;;;;;;;26.65;49.01;98618.63;2064323;28;21767;-53
2022/09/13 00:02:48;;;;;;;4.05;1.05;;;;;;;26.66;49.09;98618.41;2056516;28;20142;-56
2022/09/13 00:03:49;;;;;;;1.90;0.60;;;;;;;26.63;49.26;98616.16;2055168;28;20054;-57
2022/09/13 00:04:50;;;;;;;2.47;1.08;;;;;;;26.65;49.33;98616.75;2061731;28;20124;-55
2022/09/13 00:05:51;;;;;;;2.60;1.00;;;;;;;26.63;49.33;98618.88;2060300;28;20045;-54
2022/09/13 00:06:53;;;;;;;1.80;0.82;;;;;;;26.64;49.42;98617.00;2061761;28;20097;-53
2022/09/13 00:07:54;;;;;;;1.05;0.65;;;;;;;26.64;49.01;98611.56;2059974;28;20054;-57
2022/09/13 00:08:56;;;;;;;2.38;1.05;;;;;;;26.66;49.01;98614.84;2063380;28;20049;-53
2022/09/13 00:09:57;;;;;;;3.90;0.95;;;;;;;26.65;49.15;98621.38;2063149;28;20070;-52
2022/09/13 00:10:59;;;;;;;2.55;1.08;;;;;;;26.66;49.19;98610.25;2056984;28;20513;-52
2022/09/13 00:12:00;;;;;;;2.15;1.00;;;;;;;26.67;49.23;98617.31;2059046;28;20046;-57
2022/09/13 00:13:02;;;;;;;2.75;1.00;;;;;;;26.66;49.52;98620.28;2062516;28;20518;-51
2022/09/13 00:14:05;;;;;;;2.13;0.68;;;;;;;26.67;49.44;98611.06;2060619;28;20054;-54
2022/09/13 00:15:07;;;;;;;1.33;0.85;;;;;;;26.66;49.17;98615.69;2059962;28;20076;-56
2022/09/13 00:16:12;;;;;;;1.55;1.02;;;;;;;26.66;49.04;98614.84;2061011;28;20109;-51
2022/09/13 00:17:12;;;;;;;2.97;1.17;;;;;;;26.64;49.17;98614.28;2057874;28;20054;-56
2022/09/13 00:18:15;;;;;;;1.73;0.60;;;;;;;26.63;49.00;98612.63;2057614;28;20054;-55
2022/09/13 00:19:15;;;;;;;1.42;0.77;;;;;;;26.64;49.46;98617.00;2063206;28;20522;-52
2022/09/13 00:20:17;;;;;;;3.45;1.10;;;;;;;26.65;49.04;98613.19;2057615;28;20046;-56
2022/09/13 00:21:20;;;;;;;2.15;0.85;;;;;;;26.63;49.35;98616.16;2052780;28;20104;-53
2022/09/13 00:22:21;;;;;;;2.97;0.85;;;;;;;26.63;49.36;98610.72;2061203;28;20068;-57
2022/09/13 00:23:22;;;;;;;1.85;0.88;;;;;;;26.63;49.08;98609.91;2062741;28;20399;-56
2022/09/13 00:24:24;;;;;;;2.78;1.00;;;;;;;26.63;49.12;98612.63;2059293;28;20050;-55
2022/09/13 00:25:24;;;;;;;2.08;0.70;;;;;;;26.61;49.06;98612.91;2064602;28;20050;-52
2022/09/13 00:26:28;;;;;;;2.90;0.93;;;;;;;26.62;49.42;98614.53;2061673;28;20054;-55
2022/09/13 00:27:31;;;;;;;2.03;1.15;;;;;;;26.60;49.13;98605.81;2060663;28;20054;-55
2022/09/13 00:28:32;;;;;;;3.83;1.38;;;;;;;26.61;49.50;98615.63;2060407;28;20058;-53
2022/09/13 00:29:35;;;;;;;1.88;1.20;;;;;;;26.64;49.42;98614.28;2060781;28;20046;-58
2022/09/13 00:30:36;;;;;;;1.33;0.55;;;;;;;26.63;49.04;98609.91;2063707;28;21110;-56
2022/09/13 00:31:38;;;;;;;1.42;0.80;;;;;;;26.65;49.40;98610.47;2061514;28;20108;-53
2022/09/13 00:32:39;;;;;;;1.38;0.60;;;;;;;26.65;49.02;98613.19;2059474;28;20042;-53
2022/09/13 00:33:40;;;;;;;1.60;0.60;;;;;;;26.67;49.05;98611.06;2060488;28;20046;-55
2022/09/13 00:34:41;;;;;;;3.08;0.93;;;;;;;26.64;49.48;98606.13;2064404;28;20050;-55
2022/09/13 00:35:43;;;;;;;1.38;0.73;;;;;;;26.63;49.25;98604.47;2064907;28;20107;-55
2022/09/13 00:36:44;;;;;;;2.03;0.75;;;;;;;26.62;49.05;98603.66;2060225;28;20054;-52
2022/09/13 00:37:45;;;;;;;3.00;0.95;;;;;;;26.61;49.05;98602.03;2060733;28;20050;-52
2022/09/13 00:38:46;;;;;;;2.15;0.90;;;;;;;26.64;49.41;98611.56;2062414;28;20058;-55
2022/09/13 00:39:48;;;;;;;0.68;0.65;;;;;;;26.64;49.41;98606.13;2061918;28;20062;-49
2022/09/13 00:40:48;;;;;;;1.67;1.33;;;;;;;26.64;49.47;98606.94;2059181;28;20098;-53
2022/09/13 00:41:50;;;;;;;2.20;0.70;;;;;;;26.63;49.12;98609.91;2060759;28;20058;-50
2022/09/13 00:42:51;;;;;;;3.10;0.95;;;;;;;26.62;49.41;98609.09;2063333;28;20952;-54
2022/09/13 00:43:56;;;;;;;3.70;0.73;;;;;;;26.63;49.18;98612.63;2063621;28;20053;-52
2022/09/13 00:45:00;;;;;;;2.83;1.42;;;;;;;26.63;49.46;98615.34;2062695;28;20049;-54
2022/09/13 00:46:02;;;;;;;2.03;1.08;;;;;;;26.62;49.41;98608.28;2060361;28;20053;-51
2022/09/13 00:47:03;;;;;;;0.70;0.60;;;;;;;26.62;49.56;98609.09;2062412;28;20050;-53
2022/09/13 00:48:07;;;;;;;1.35;0.77;;;;;;;26.61;49.56;98607.47;2062462;28;20463;-56
2022/09/13 00:49:16;;;;;;;0.90;0.60;;;;;;;26.60;49.33;98613.16;2063045;28;20062;-60
2022/09/13 00:50:21;;;;;;;2.55;0.90;;;;;;;26.59;49.13;98606.88;2062355;28;20046;-54
2022/09/13 00:51:21;;;;;;;1.65;1.05;;;;;;;26.59;49.10;98609.59;2063065;28;20054;-52
2022/09/13 00:52:26;;;;;;;0.98;0.80;;;;;;;26.62;49.26;98617.25;2060636;28;20058;-57
2022/09/13 00:53:30;;;;;;;1.40;1.05;;;;;;;26.61;49.03;98617.53;2058667;28;20677;-56
2022/09/13 00:54:37;;;;;;;2.33;0.80;;;;;;;26.60;49.00;98618.59;2063015;28;20050;-52
2022/09/13 00:55:43;;;;;;;1.75;0.70;;;;;;;26.60;49.15;98616.69;2062661;28;20058;-54
2022/09/13 00:56:50;;;;;;;2.10;0.70;;;;;;;26.60;49.22;98610.44;2060832;28;20046;-54
2022/09/13 00:57:52;;;;;;;2.92;0.65;;;;;;;26.59;49.39;98608.78;2061964;28;20829;-55
2022/09/13 00:58:58;;;;;;;2.47;0.85;;;;;;;26.59;49.21;98611.50;2061129;28;20078;-57
2022/09/13 01:00:08;;;;;;;1.77;1.20;;;;;;;26.60;49.17;98616.69;2059447;28;20054;-53
2022/09/13 01:01:13;;;;;;;1.77;0.57;;;;;;;26.57;49.61;98610.94;2064233;28;20160;-54
2022/09/13 01:02:14;;;;;;;1.65;0.77;;;;;;;26.58;49.62;98609.84;2062311;28;20312;-57
2022/09/13 01:03:19;;;;;;;1.27;0.82;;;;;;;26.59;49.35;98608.78;2060084;28;20057;-57
2022/09/13 01:04:23;;;;;;;2.80;1.02;;;;;;;26.58;49.25;98609.84;2064214;28;20063;-52
2022/09/13 01:05:30;;;;;;;2.95;0.88;;;;;;;26.58;49.47;98609.84;2063021;28;20105;-56
2022/09/13 01:06:35;;;;;;;1.95;0.70;;;;;;;26.58;49.59;98604.41;2060088;28;20525;-53
2022/09/13 01:07:38;;;;;;;1.77;0.90;;;;;;;26.58;49.18;98604.41;2062907;28;20050;-53
2022/09/13 01:08:42;;;;;;;0.88;0.50;;;;;;;26.57;49.61;98610.94;2061493;28;20520;-51
2022/09/13 01:09:47;;;;;;;4.72;0.80;;;;;;;26.56;49.49;98603.88;2063192;28;20054;-54
2022/09/13 01:10:49;;;;;;;3.28;0.88;;;;;;;26.56;49.26;98603.88;2064528;28;20050;-51
2022/09/13 01:12:03;;;;;;;1.55;0.60;;;;;;;26.57;49.10;98608.22;2063816;28;20042;-54
2022/09/13 01:13:13;;;;;;;1.85;0.77;;;;;;;26.54;49.16;98608.75;2057619;28;20420;-54
2022/09/13 01:14:17;;;;;;;3.05;1.05;;;;;;;26.52;49.47;98607.09;2057551;28;20092;-54
2022/09/13 01:15:19;;;;;;;3.88;0.80;;;;;;;26.54;49.27;98611.47;2055527;28;20054;-55
2022/09/13 01:16:21;;;;;;;0.50;0.50;;;;;;;26.54;49.54;98606.84;2062941;28;20091;-55
2022/09/13 01:17:22;;;;;;;0.77;0.65;;;;;;;26.54;49.33;98600.56;2051629;28;20054;-55
2022/09/13 01:18:24;;;;;;;1.65;0.65;;;;;;;26.54;49.23;98598.66;2062604;28;20057;-52
2022/09/13 01:19:25;;;;;;;1.65;0.90;;;;;;;26.55;49.67;98603.06;2062170;28;20517;-50
2022/09/13 01:20:45;;;;;;;2.13;0.93;;;;;;;26.54;49.65;98600.56;2057588;28;20104;-57
2022/09/13 01:22:05;;;;;;;1.25;0.70;;;;;;;26.50;49.79;98597.53;2060183;28;20061;-52
2022/09/13 01:23:30;;;;;;;3.72;1.13;;;;;;;26.48;49.74;98591.50;2061183;28;20055;-54
2022/09/13 01:25:22;;;;;;;2.15;0.90;;;;;;;26.44;49.79;98593.94;2057533;28;20053;-49
2022/09/13 01:26:52;;;;;;;1.73;0.65;;;;;;;26.43;49.71;98599.63;2019076;28;20137;-50
2022/09/13 01:28:10;;;;;;;1.58;0.80;;;;;;;26.42;49.70;98597.97;2060030;28;20050;-54
2022/09/13 01:29:32;;;;;;;0.98;0.75;;;;;;;26.43;49.68;98595.00;2059761;28;20065;-49
2022/09/13 01:30:41;;;;;;;1.30;0.88;;;;;;;26.45;49.45;98587.41;2058864;28;20437;-57
2022/09/13 01:31:51;;;;;;;1.38;1.05;;;;;;;26.46;49.44;98597.19;2062187;28;20050;-54
2022/09/13 01:33:29;;;;;;;3.65;0.88;;;;;;;26.45;49.85;98594.75;2063691;28;20049;-55
2022/09/13 01:34:40;;;;;;;2.83;1.10;;;;;;;26.45;49.38;98587.41;2046953;28;20050;-56
2022/09/13 01:35:51;;;;;;;2.30;0.82;;;;;;;26.44;49.46;98590.38;2057258;28;20049;-51
2022/09/13 01:37:00;;;;;;;;;;;;;;;26.34;49.75;98593.81;2059927;28;20586;-54
2022/09/13 01:38:11;;;;;;;2.20;0.50;;;;;;;26.40;49.97;98590.06;2057126;28;19929;-55
2022/09/13 01:39:17;;;;;;;4.13;1.13;;;;;;;26.42;49.78;98587.91;2063422;28;20058;-52
2022/09/13 01:40:31;;;;;;;2.92;0.85;;;;;;;26.43;49.81;98584.13;2060325;28;20123;-54
2022/09/13 01:41:50;;;;;;;1.27;0.68;;;;;;;26.45;49.86;98586.59;2059696;28;20101;-57
2022/09/13 01:43:04;;;;;;;1.95;0.90;;;;;;;26.45;49.48;98587.41;2062783;28;20465;-47
2022/09/13 01:44:18;;;;;;;1.42;0.70;;;;;;;26.45;49.26;98583.88;2057520;28;20501;-56
2022/09/13 01:45:28;;;;;;;1.35;0.93;;;;;;;26.45;49.67;98587.41;2054684;28;20134;-50
2022/09/13 01:46:38;;;;;;;3.95;1.27;;;;;;;26.43;49.40;98595.00;2061072;28;20113;-56
2022/09/13 01:47:49;;;;;;;1.35;0.95;;;;;;;26.47;49.44;98592.59;2059310;28;20054;-58
2022/09/13 01:48:57;;;;;;;2.72;0.82;;;;;;;26.46;49.25;98594.47;2055741;28;20050;-50
2022/09/13 01:50:11;;;;;;;2.00;0.70;;;;;;;26.46;49.23;98593.66;2060988;28;20108;-56
2022/09/13 01:51:21;;;;;;;2.35;0.98;;;;;;;26.46;49.11;98594.47;2061576;28;20124;-51
2022/09/13 01:52:28;;;;;;;1.20;0.57;;;;;;;26.46;49.45;98589.03;2062556;28;20911;-56
2022/09/13 01:53:36;;;;;;;1.40;0.57;;;;;;;26.45;49.61;98589.31;2062951;28;20285;-53
2022/09/13 01:54:44;;;;;;;0.65;0.55;;;;;;;26.45;49.46;98598.28;2057758;28;20081;-54
2022/09/13 01:55:50;;;;;;;2.00;1.10;;;;;;;26.46;49.31;98588.22;2062094;28;20038;-54
2022/09/13 01:56:57;;;;;;;2.97;0.75;;;;;;;26.45;49.50;98592.84;2060146;28;20510;-53
2022/09/13 01:58:07;;;;;;;2.17;0.77;;;;;;;26.45;49.43;98595.56;2057715;28;20100;-51
2022/09/13 01:59:15;;;;;;;2.77;0.90;;;;;;;26.46;49.15;98593.66;2053358;28;20995;-49
2022/09/13 02:00:18;;;;;;;1.77;0.77;;;;;;;26.45;49.56;98592.84;2061293;28;20305;-47
2022/09/13 02:01:24;;;;;;;2.47;0.60;;;;;;;26.45;49.39;98600.19;2064875;28;20670;-51
2022/09/13 02:02:30;;;;;;;1.65;0.68;;;;;;;26.45;49.56;98598.28;2061191;28;20060;-50
2022/09/13 02:03:36;;;;;;;1.33;0.75;;;;;;;26.44;49.06;98593.94;2059461;28;20047;-50
2022/09/13 02:04:43;;;;;;;1.33;0.50;;;;;;;26.45;49.02;98592.84;2059654;28;20052;-51
2022/09/13 02:05:50;;;;;;;1.20;0.63;;;;;;;26.47;48.93;98595.31;2060873;28;20050;-54
2022/09/13 02:07:03;;;;;;;3.05;1.05;;;;;;;26.45;49.30;98602.91;2055987;28;20066;-54
2022/09/13 02:08:07;;;;;;;2.97;1.10;;;;;;;26.44;49.27;98598.53;2058417;28;20049;-50
2022/09/13 02:09:13;;;;;;;1.25;0.68;;;;;;;26.45;49.01;98598.28;2060049;28;20049;-53
2022/09/13 02:10:20;;;;;;;4.70;1.33;;;;;;;26.44;49.39;98587.66;2060426;28;20729;-56
2022/09/13 02:11:22;;;;;;;1.65;1.02;;;;;;;26.45;49.45;98592.84;2059704;28;20053;-52
2022/09/13 02:12:26;;;;;;;3.17;1.42;;;;;;;26.47;49.39;98589.88;2060621;28;20083;-51
2022/09/13 02:13:35;;;;;;;2.83;0.95;;;;;;;26.46;49.01;98588.22;2059874;28;20081;-54
2022/09/13 02:14:39;;;;;;;1.55;0.80;;;;;;;26.46;49.02;98591.75;2054653;28;20058;-57
2022/09/13 02:15:45;;;;;;;1.95;0.60;;;;;;;26.45;49.39;98590.13;2061094;28;20060;-56
2022/09/13 02:16:51;;;;;;;1.90;0.70;;;;;;;26.44;49.09;98593.94;2060859;28;20050;-49
2022/09/13 02:18:02;;;;;;;1.05;0.50;;;;;;;26.42;48.94;98593.34;2060000;28;20129;-49
2022/09/13 02:19:09;;;;;;;2.95;0.50;;;;;;;26.40;49.49;98590.06;2058729;28;20074;-54
2022/09/13 02:20:15;;;;;;;2.70;0.80;;;;;;;26.43;48.91;98594.19;2057001;28;21834;-48
2022/09/13 02:21:20;;;;;;;2.47;0.82;;;;;;;26.43;49.41;98595.00;2059977;28;20646;-53
2022/09/13 02:22:26;;;;;;;3.83;0.60;;;;;;;26.43;49.11;98591.47;2060276;28;20057;-53
2022/09/13 02:23:35;;;;;;;2.25;0.70;;;;;;;26.42;49.00;98585.19;2062458;28;20181;-54
2022/09/13 02:24:41;;;;;;;3.13;0.75;;;;;;;26.42;48.92;98590.63;2057829;28;20121;-50
2022/09/13 02:25:45;;;;;;;2.30;0.57;;;;;;;26.43;49.29;98584.13;2061277;28;20053;-49
2022/09/13 02:26:48;;;;;;;1.65;0.75;;;;;;;26.43;49.24;98588.75;2058644;28;20053;-52
2022/09/13 02:27:53;;;;;;;2.05;0.50;;;;;;;26.39;49.07;98579.47;2057894;28;20065;-54
2022/09/13 02:28:58;;;;;;;1.95;0.90;;;;;;;26.40;49.24;98583.81;2056537;28;20168;-50
2022/09/13 02:30:03;;;;;;;1.58;0.85;;;;;;;26.43;48.87;98583.28;2065148;28;20104;-53
2022/09/13 02:31:09;;;;;;;2.35;1.13;;;;;;;26.43;49.23;98583.28;2062349;28;20611;-48
2022/09/13 02:32:13;;;;;;;2.42;0.68;;;;;;;26.41;49.40;98580.84;2059217;28;20411;-55
2022/09/13 02:33:20;;;;;;;1.02;0.82;;;;;;;26.43;48.94;98578.69;2061449;28;20144;-53
2022/09/13 02:34:24;;;;;;;2.03;0.55;;;;;;;26.43;49.08;98586.84;2059457;28;20049;-57
2022/09/13 02:35:31;;;;;;;2.15;0.70;;;;;;;26.44;49.02;98584.94;2058748;28;20057;-51
2022/09/13 02:36:35;;;;;;;2.20;0.60;;;;;;;26.43;49.33;98584.13;2060070;28;20057;-52
2022/09/13 02:37:40;;;;;;;1.15;0.60;;;;;;;26.41;48.96;98575.41;2062100;28;20287;-53
2022/09/13 02:38:46;;;;;;;2.58;0.75;;;;;;;26.41;49.07;98580.84;2060856;28;21061;-52
2022/09/13 02:39:55;;;;;;;1.92;0.80;;;;;;;26.42;49.20;98576.22;2061872;28;20046;-54
2022/09/13 02:40:59;;;;;;;2.33;1.15;;;;;;;26.40;49.38;98573.75;2064397;28;20049;-53
2022/09/13 02:42:08;;;;;;;0.75;0.55;;;;;;;26.42;49.29;98576.22;2060136;28;20125;-53
2022/09/13 02:43:13;;;;;;;1.63;0.70;;;;;;;26.42;49.14;98576.22;2052605;28;20078;-55
2022/09/13 02:44:23;;;;;;;2.47;0.90;;;;;;;26.41;49.14;98580.00;2052619;28;20063;-53
2022/09/13 02:45:30;;;;;;;2.45;0.82;;;;;;;26.39;49.19;98580.28;2062051;28;20108;-54
2022/09/13 02:46:47;;;;;;;1.73;0.77;;;;;;;26.37;49.48;98582.44;2060780;28;20409;-51
2022/09/13 02:47:56;;;;;;;1.02;0.68;;;;;;;26.38;49.46;98581.34;2060034;28;20153;-51
2022/09/13 02:49:06;;;;;;;1.67;0.80;;;;;;;26.38;49.35;98580.53;2063487;28;20521;-51
2022/09/13 02:50:21;;;;;;;0.77;0.68;;;;;;;26.38;49.19;98575.91;2061609;28;20053;-50
2022/09/13 02:51:30;;;;;;;3.17;0.98;;;;;;;26.38;49.17;98581.34;2056930;28;20124;-52
2022/09/13 02:52:40;;;;;;;1.70;0.90;;;;;;;26.40;48.98;98581.09;2059256;28;20049;-54
2022/09/13 02:53:49;;;;;;;2.67;0.80;;;;;;;26.38;49.12;98581.34;2061994;28;20111;-49
2022/09/13 02:54:58;;;;;;;2.05;0.77;;;;;;;26.39;49.07;98582.19;2062114;28;20144;-53
2022/09/13 02:56:10;;;;;;;0.60;0.60;;;;;;;26.38;48.98;98577.81;2063394;28;20057;-50
2022/09/13 02:57:18;;;;;;;1.50;0.68;;;;;;;26.37;49.31;98578.88;2057338;28;22309;-51
2022/09/13 02:58:24;;;;;;;1.58;0.80;;;;;;;26.36;49.07;98580.78;2061633;28;20050;-49
2022/09/13 02:59:27;;;;;;;2.33;0.60;;;;;;;26.37;49.30;98582.44;2058938;28;20607;-49
2022/09/13 03:00:28;;;;;;;1.33;0.45;;;;;;;26.39;49.20;98576.75;2063922;28;20054;-52
2022/09/13 03:01:30;;;;;;;2.50;1.27;;;;;;;26.39;49.06;98582.19;2062383;28;20137;-51
2022/09/13 03:02:32;;;;;;;2.15;0.68;;;;;;;26.37;49.31;98579.69;2058200;28;20054;-51
2022/09/13 03:03:34;;;;;;;1.10;0.55;;;;;;;26.35;49.02;98581.03;2063782;28;20058;-51
2022/09/13 03:04:36;;;;;;;1.48;1.10;;;;;;;26.38;49.10;98573.19;2061803;28;20076;-51
2022/09/13 03:05:38;;;;;;;2.03;0.60;;;;;;;26.36;49.32;98572.63;2058256;28;20046;-52
2022/09/13 03:06:40;;;;;;;1.42;0.60;;;;;;;26.34;49.47;98569.34;2063625;28;20095;-53
2022/09/13 03:07:41;;;;;;;2.20;0.75;;;;;;;26.38;49.08;98575.91;2062340;28;20042;-51
2022/09/13 03:08:42;;;;;;;1.25;0.60;;;;;;;26.38;49.40;98566.91;2060560;28;21250;-53
2022/09/13 03:09:48;;;;;;;1.98;0.90;;;;;;;26.39;49.35;98572.13;2064950;28;20104;-54
2022/09/13 03:11:01;;;;;;;1.42;0.73;;;;;;;26.35;49.48;98565.53;2062455;28;20430;-51
2022/09/13 03:12:28;;;;;;;1.25;0.90;;;;;;;26.34;49.02;98571.25;2057656;28;20067;-53
2022/09/13 03:13:44;;;;;;;2.40;0.80;;;;;;;26.34;49.28;98568.53;2059979;28;20057;-52
2022/09/13 03:14:53;;;;;;;1.65;0.70;;;;;;;26.32;49.54;98571.50;2061823;28;20071;-48
2022/09/13 03:16:04;;;;;;;0.85;0.60;;;;;;;26.35;49.00;98570.97;2062524;28;20053;-53
2022/09/13 03:17:17;;;;;;;1.50;0.68;;;;;;;26.36;49.34;98571.81;2060310;28;20053;-52
2022/09/13 03:18:36;;;;;;;1.40;0.90;;;;;;;26.34;49.17;98568.53;2060590;28;20050;-50
2022/09/13 03:20:09;;;;;;;2.47;0.60;;;;;;;26.29;49.41;98569.28;2060550;28;20054;-57
2022/09/13 03:21:22;;;;;;;1.60;0.73;;;;;;;26.33;49.49;98581.31;2062815;28;20576;-51
2022/09/13 03:22:41;;;;;;;1.40;0.63;;;;;;;26.32;49.58;98573.38;2060228;28;20092;-55
2022/09/13 03:23:53;;;;;;;1.13;0.55;;;;;;;26.31;49.34;98575.28;2061288;28;20076;-52
2022/09/13 03:25:05;;;;;;;2.70;0.70;;;;;;;26.34;49.12;98573.97;2064507;28;20133;-51
2022/09/13 03:26:27;;;;;;;2.13;1.10;;;;;;;26.31;49.13;98567.13;2061087;28;20054;-50
2022/09/13 03:27:34;;;;;;;2.13;0.75;;;;;;;26.32;49.49;98567.97;2058744;28;20054;-50
2022/09/13 03:28:42;;;;;;;1.35;0.80;;;;;;;26.30;48.90;98570.94;2060310;28;20168;-55
2022/09/13 03:29:53;;;;;;;2.60;1.35;;;;;;;26.29;49.43;98570.09;2057729;28;20052;-54
2022/09/13 03:31:04;;;;;;;2.63;1.20;;;;;;;26.31;49.33;98564.41;2060835;28;20129;-53
2022/09/13 03:32:09;;;;;;;;;;;;;;;26.20;49.77;98563.47;2060464;28;20053;-51
2022/09/13 03:33:22;;;;;;;0.50;0.45;;;;;;;26.26;49.76;98564.34;2059160;28;19929;-53
2022/09/13 03:34:32;;;;;;;0.80;0.45;;;;;;;26.26;49.60;98561.63;2063571;28;20415;-48
2022/09/13 03:35:41;;;;;;;2.80;0.98;;;;;;;26.29;49.22;98566.56;2058706;28;20062;-52
2022/09/13 03:36:48;;;;;;;0.90;0.50;;;;;;;26.28;49.16;98567.66;2061801;28;20050;-51
2022/09/13 03:37:57;;;;;;;0.88;0.77;;;;;;;26.31;49.56;98572.56;2061033;28;20045;-50
2022/09/13 03:39:05;;;;;;;1.02;0.50;;;;;;;26.31;49.36;98569.84;2061693;28;20049;-54
2022/09/13 03:40:12;;;;;;;0.77;0.60;;;;;;;26.31;49.18;98572.56;2061279;28;20117;-50
2022/09/13 03:41:19;;;;;;;1.20;0.40;;;;;;;26.31;49.08;98572.56;2061198;28;20108;-52
2022/09/13 03:42:26;;;;;;;0.55;0.47;;;;;;;26.31;49.20;98572.56;2059350;28;20058;-51
2022/09/13 03:43:34;;;;;;;1.67;0.90;;;;;;;26.34;49.23;98569.34;2062649;28;20749;-50
2022/09/13 03:44:38;;;;;;;2.55;1.38;;;;;;;26.29;49.70;98561.94;2060541;28;20046;-53
2022/09/13 03:45:44;;;;;;;1.90;0.75;;;;;;;26.30;49.07;98565.50;2063370;28;20054;-53
2022/09/13 03:46:50;;;;;;;1.27;0.70;;;;;;;26.30;49.37;98563.59;2060368;28;20056;-50
2022/09/13 03:47:51;;;;;;;2.38;0.80;;;;;;;26.28;49.35;98564.94;2059833;28;20050;-55
2022/09/13 03:48:54;;;;;;;0.55;0.50;;;;;;;26.30;49.35;98562.78;2060972;28;20078;-53
2022/09/13 03:49:56;;;;;;;1.80;0.70;;;;;;;26.29;49.30;98563.84;2060898;28;20586;-54
2022/09/13 03:51:00;;;;;;;1.38;0.98;;;;;;;26.27;49.54;98557.84;2060179;28;20042;-52
2022/09/13 03:52:01;;;;;;;2.38;0.50;;;;;;;26.29;49.11;98561.13;2062888;28;20045;-52
2022/09/13 03:53:07;;;;;;;1.15;0.60;;;;;;;26.29;49.38;98561.13;2063553;28;20663;-50
2022/09/13 03:54:20;;;;;;;1.05;0.70;;;;;;;26.26;49.51;98561.63;2056279;28;20046;-51
2022/09/13 03:55:22;;;;;;;0.73;0.50;;;;;;;26.27;49.69;98558.69;2052225;28;20066;-54
2022/09/13 03:56:23;;;;;;;1.40;0.60;;;;;;;26.27;49.17;98557.84;2057304;28;20131;-54
2022/09/13 03:57:25;;;;;;;1.15;0.70;;;;;;;26.27;49.12;98549.69;2059884;28;20736;-55
2022/09/13 03:58:27;;;;;;;1.95;0.70;;;;;;;26.30;49.50;98560.88;2060635;28;20148;-57
2022/09/13 03:59:29;;;;;;;2.80;0.85;;;;;;;26.31;49.35;98553.53;2061964;28;20660;-50
2022/09/13 04:00:30;;;;;;;1.25;0.70;;;;;;;26.28;49.50;98552.16;2062873;28;20054;-49
2022/09/13 04:01:31;;;;;;;2.10;0.60;;;;;;;26.30;49.56;98546.47;2058798;28;20046;-50
2022/09/13 04:02:32;;;;;;;1.38;0.75;;;;;;;26.28;49.33;98551.34;2062023;28;20871;-48
2022/09/13 04:03:34;;;;;;;1.67;0.82;;;;;;;26.27;49.62;98555.13;2063476;28;20104;-50
2022/09/13 04:04:35;;;;;;;1.60;0.68;;;;;;;26.29;49.09;98547.53;2058337;28;20129;-49
2022/09/13 04:05:37;;;;;;;1.20;0.90;;;;;;;26.33;49.13;98551.41;2061310;28;20549;-52
2022/09/13 04:06:39;;;;;;;2.08;0.63;;;;;;;26.29;49.44;98558.41;2061716;28;20081;-49
2022/09/13 04:07:41;;;;;;;2.72;0.52;;;;;;;26.29;49.35;98547.53;2060861;28;20801;-50
2022/09/13 04:08:42;;;;;;;1.52;0.70;;;;;;;26.28;49.65;98551.34;2060154;28;20058;-53
2022/09/13 04:09:44;;;;;;;3.25;1.00;;;;;;;26.29;49.14;98544.81;2064659;28;20045;-49
2022/09/13 04:10:49;;;;;;;1.90;0.75;;;;;;;26.28;49.63;98548.63;2061549;28;20157;-48
2022/09/13 04:11:51;;;;;;;2.80;0.85;;;;;;;26.27;49.49;98542.38;2055328;28;21150;-49
2022/09/13 04:12:53;;;;;;;1.42;0.63;;;;;;;26.28;49.07;98540.47;2060874;28;20054;-49
2022/09/13 04:13:55;;;;;;;0.90;0.47;;;;;;;26.28;49.25;98540.47;2060456;28;20171;-49
2022/09/13 04:14:55;;;;;;;1.38;0.60;;;;;;;26.28;49.53;98543.19;2061472;28;20049;-50
2022/09/13 04:16:01;;;;;;;2.13;0.70;;;;;;;26.26;49.26;98543.44;2065299;28;20066;-50
2022/09/13 04:17:02;;;;;;;1.90;1.00;;;;;;;26.27;49.69;98541.53;2057373;28;20041;-49
2022/09/13 04:18:04;;;;;;;1.83;0.90;;;;;;;26.27;49.66;98544.25;2062118;28;20502;-51
2022/09/13 04:19:05;;;;;;;1.15;0.70;;;;;;;26.28;49.69;98551.34;2061320;28;20133;-49
2022/09/13 04:20:08;;;;;;;1.38;0.70;;;;;;;26.30;49.15;98546.47;2064777;28;20046;-51
2022/09/13 04:21:08;;;;;;;1.33;0.70;;;;;;;26.29;49.43;98542.09;2061959;28;20662;-52
2022/09/13 04:22:12;;;;;;;2.05;1.05;;;;;;;26.25;49.24;98543.69;2059539;28;20042;-49
2022/09/13 04:23:13;;;;;;;1.60;0.68;;;;;;;26.27;49.13;98546.97;2065228;28;20050;-49
2022/09/13 04:24:15;;;;;;;1.13;0.47;;;;;;;26.27;49.14;98552.41;2063401;28;20441;-50
2022/09/13 04:25:16;;;;;;;1.30;0.70;;;;;;;26.31;49.49;98556.25;2061799;28;20089;-48
2022/09/13 04:26:17;;;;;;;1.80;0.90;;;;;;;26.27;49.48;98546.97;2063358;28;20050;-49
2022/09/13 04:27:18;;;;;;;2.60;0.70;;;;;;;26.25;49.10;98544.50;2061158;28;20131;-49
2022/09/13 04:28:22;;;;;;;2.38;0.70;;;;;;;26.29;49.60;98544.81;2063854;28;20050;-51
2022/09/13 04:29:24;;;;;;;1.42;0.70;;;;;;;26.28;49.53;98543.19;2064816;28;20470;-49
2022/09/13 04:30:26;;;;;;;0.93;0.60;;;;;;;26.25;49.68;98554.56;2061668;28;20061;-49
2022/09/13 04:31:27;;;;;;;0.68;0.55;;;;;;;26.27;49.53;98546.97;2061655;28;20084;-48
2022/09/13 04:32:29;;;;;;;1.50;0.60;;;;;;;26.27;49.39;98545.09;2066848;28;20046;-49
2022/09/13 04:33:30;;;;;;;0.85;0.57;;;;;;;26.26;49.03;98540.72;2063169;28;20782;-51
2022/09/13 04:34:32;;;;;;;0.50;0.50;;;;;;;26.25;49.16;98549.13;2056763;28;20058;-50
2022/09/13 04:35:33;;;;;;;1.85;0.65;;;;;;;26.26;49.20;98546.16;2054018;28;20536;-50
2022/09/13 04:36:34;;;;;;;2.60;0.85;;;;;;;26.24;49.41;98547.47;2058357;28;20047;-52
2022/09/13 04:37:37;;;;;;;1.73;0.88;;;;;;;26.22;49.21;98552.38;2058474;28;20454;-49
2022/09/13 04:38:39;;;;;;;0.63;0.57;;;;;;;26.22;49.33;98553.19;2060079;28;20050;-50
2022/09/13 04:39:40;;;;;;;1.70;0.50;;;;;;;26.22;49.81;98550.47;2058848;28;20915;-48
2022/09/13 04:40:41;;;;;;;2.13;0.82;;;;;;;26.20;49.43;98557.22;2060898;28;20046;-52
2022/09/13 04:41:44;;;;;;;2.20;0.70;;;;;;;26.23;49.42;98549.38;2061663;28;20057;-49
2022/09/13 04:42:46;;;;;;;1.20;0.73;;;;;;;26.22;49.78;98552.38;2063352;28;20421;-51
2022/09/13 04:43:49;;;;;;;0.93;0.75;;;;;;;26.20;49.31;98551.78;2061488;28;20529;-50
2022/09/13 04:44:50;;;;;;;1.60;0.90;;;;;;;26.19;49.50;98544.72;2065689;28;20058;-50
2022/09/13 04:45:51;;;;;;;0.88;0.68;;;;;;;26.23;49.75;98551.28;2063780;28;20050;-50
2022/09/13 04:46:54;;;;;;;1.25;0.70;;;;;;;26.22;49.25;98549.66;2062429;28;20043;-52
2022/09/13 04:47:55;;;;;;;2.10;0.77;;;;;;;26.21;49.85;98553.44;2061215;28;20548;-52
2022/09/13 04:48:57;;;;;;;1.20;0.45;;;;;;;26.24;49.44;98548.31;2058636;28;20137;-49
2022/09/13 04:49:58;;;;;;;1.90;0.68;;;;;;;26.26;49.10;98551.59;2061782;28;20050;-49
2022/09/13 04:51:03;;;;;;;1.55;0.73;;;;;;;26.25;49.15;98554.56;2060838;28;20047;-50
2022/09/13 04:52:04;;;;;;;0.93;0.45;;;;;;;26.25;49.31;98554.56;2062206;28;20054;-50
2022/09/13 04:53:07;;;;;;;4.88;0.73;;;;;;;26.23;49.18;98548.56;2062865;28;20054;-49
2022/09/13 04:54:09;;;;;;;1.05;0.50;;;;;;;26.24;49.53;98558.34;2061147;28;20108;-49
2022/09/13 04:55:11;;;;;;;0.70;0.60;;;;;;;26.23;49.16;98556.72;2066768;28;20062;-53
2022/09/13 04:56:14;;;;;;;1.75;0.60;;;;;;;26.22;49.58;98555.91;2057560;28;20133;-50
2022/09/13 04:57:16;;;;;;;1.80;0.70;;;;;;;26.24;49.40;98558.34;2060022;28;20391;-50
2022/09/13 04:58:17;;;;;;;1.55;0.73;;;;;;;26.24;49.64;98564.63;2054978;28;20426;-51
2022/09/13 04:59:19;;;;;;;3.88;1.17;;;;;;;26.23;49.24;98556.72;2057645;28;20042;-49
2022/09/13 05:00:20;;;;;;;2.72;0.60;;;;;;;26.23;49.46;98562.97;2051823;28;20182;-49
2022/09/13 05:01:23;;;;;;;1.00;0.63;;;;;;;26.22;49.75;98560.53;2060352;28;20082;-48
2022/09/13 05:02:24;;;;;;;0.80;0.60;;;;;;;26.23;49.31;98554.81;2059016;28;20120;-49
2022/09/13 05:03:26;;;;;;;3.53;0.90;;;;;;;26.22;49.79;98563.25;2057183;28;20716;-51
2022/09/13 05:04:27;;;;;;;1.45;0.85;;;;;;;26.23;49.13;98564.88;2063995;28;20093;-50
2022/09/13 05:05:29;;;;;;;2.33;0.60;;;;;;;26.22;49.31;98563.25;2058331;28;20512;-51
2022/09/13 05:06:31;;;;;;;2.63;0.63;;;;;;;26.20;49.50;98568.09;2061671;28;20057;-51
2022/09/13 05:07:32;;;;;;;1.67;0.65;;;;;;;26.18;49.83;98562.09;2060791;28;20103;-56
2022/09/13 05:08:36;;;;;;;1.13;0.60;;;;;;;26.16;49.79;98562.38;2059917;28;20065;-51
2022/09/13 05:09:37;;;;;;;3.20;0.70;;;;;;;26.17;49.61;98560.47;2061728;28;20045;-50